sensor_id;sensor_type;location;lat;lon;timestamp;temperature;humidity
47414;DHT22;33163;0.000;0.000;2023-03-11T00:00:34;19.10;41.30
47414;DHT22;33163;0.000;0.000;2023-03-11T00:03:03;19.10;41.10
47414;DHT22;33163;0.000;0.000;2023-03-11T00:05:31;19.10;41.20
47414;DHT22;33163;0.000;0.000;2023-03-11T00:08:00;19.10;41.10
47414;DHT22;33163;0.000;0.000;2023-03-11T00:10:29;19.10;41.10
47414;DHT22;33163;0.000;0.000;2023-03-11T00:12:56;19.10;41.10
47414;DHT22;33163;0.000;0.000;2023-03-11T00:15:23;19.10;41.10
47414;DHT22;33163;0.000;0.000;2023-03-11T00:17:50;19.00;41.00
47414;DHT22;33163;0.000;0.000;2023-03-11T00:20:20;19.00;41.10
47414;DHT22;33163;0.000;0.000;2023-03-11T00:22:46;19.00;41.10
47414;DHT22;33163;0.000;0.000;2023-03-11T00:25:17;19.00;41.00
47414;DHT22;33163;0.000;0.000;2023-03-11T00:27:44;19.00;40.80
47414;DHT22;33163;0.000;0.000;2023-03-11T00:30:13;19.00;40.80
47414;DHT22;33163;0.000;0.000;2023-03-11T00:32:40;19.00;40.80
47414;DHT22;33163;0.000;0.000;2023-03-11T00:35:08;19.00;40.80
47414;DHT22;33163;0.000;0.000;2023-03-11T00:37:36;19.00;40.80
47414;DHT22;33163;0.000;0.000;2023-03-11T00:40:04;19.00;40.90
47414;DHT22;33163;0.000;0.000;2023-03-11T00:42:34;18.90;40.90
47414;DHT22;33163;0.000;0.000;2023-03-11T00:45:01;18.90;41.00
47414;DHT22;33163;0.000;0.000;2023-03-11T00:47:28;18.90;41.00
47414;DHT22;33163;0.000;0.000;2023-03-11T00:49:54;18.90;40.80
47414;DHT22;33163;0.000;0.000;2023-03-11T00:52:21;19.00;40.80
47414;DHT22;33163;0.000;0.000;2023-03-11T00:54:48;19.00;40.70
47414;DHT22;33163;0.000;0.000;2023-03-11T00:57:14;19.00;40.70
47414;DHT22;33163;0.000;0.000;2023-03-11T00:59:43;18.90;40.60
47414;DHT22;33163;0.000;0.000;2023-03-11T01:02:09;18.90;40.60
47414;DHT22;33163;0.000;0.000;2023-03-11T01:04:38;18.90;40.70
47414;DHT22;33163;0.000;0.000;2023-03-11T01:07:04;18.90;40.70
47414;DHT22;33163;0.000;0.000;2023-03-11T01:09:31;18.90;40.70
47414;DHT22;33163;0.000;0.000;2023-03-11T01:11:58;18.80;40.70
47414;DHT22;33163;0.000;0.000;2023-03-11T01:14:25;18.90;40.80
47414;DHT22;33163;0.000;0.000;2023-03-11T01:16:53;18.90;40.80
47414;DHT22;33163;0.000;0.000;2023-03-11T01:19:21;18.90;40.70
47414;DHT22;33163;0.000;0.000;2023-03-11T01:21:47;18.90;40.70
47414;DHT22;33163;0.000;0.000;2023-03-11T01:24:14;18.90;40.70
47414;DHT22;33163;0.000;0.000;2023-03-11T01:26:41;18.90;40.50
47414;DHT22;33163;0.000;0.000;2023-03-11T01:29:09;18.90;40.60
47414;DHT22;33163;0.000;0.000;2023-03-11T01:31:36;18.90;40.60
47414;DHT22;33163;0.000;0.000;2023-03-11T01:34:04;18.80;40.60
47414;DHT22;33163;0.000;0.000;2023-03-11T01:36:31;18.80;40.60
47414;DHT22;33163;0.000;0.000;2023-03-11T01:38:57;18.80;40.60
47414;DHT22;33163;0.000;0.000;2023-03-11T01:41:24;18.80;40.70
47414;DHT22;33163;0.000;0.000;2023-03-11T01:43:52;18.90;40.70
47414;DHT22;33163;0.000;0.000;2023-03-11T01:46:21;18.90;40.60
47414;DHT22;33163;0.000;0.000;2023-03-11T01:48:49;18.90;40.60
47414;DHT22;33163;0.000;0.000;2023-03-11T01:51:23;18.90;40.50
47414;DHT22;33163;0.000;0.000;2023-03-11T01:53:51;18.80;40.50
47414;DHT22;33163;0.000;0.000;2023-03-11T01:56:19;18.80;41.20
47414;DHT22;33163;0.000;0.000;2023-03-11T01:58:48;18.80;40.50
47414;DHT22;33163;0.000;0.000;2023-03-11T02:01:17;18.80;40.60
47414;DHT22;33163;0.000;0.000;2023-03-11T02:03:45;18.70;40.60
47414;DHT22;33163;0.000;0.000;2023-03-11T02:06:15;18.80;40.70
47414;DHT22;33163;0.000;0.000;2023-03-11T02:08:44;18.80;40.70
47414;DHT22;33163;0.000;0.000;2023-03-11T02:11:13;18.80;40.60
47414;DHT22;33163;0.000;0.000;2023-03-11T02:13:44;18.80;40.60
47414;DHT22;33163;0.000;0.000;2023-03-11T02:16:12;18.80;40.60
47414;DHT22;33163;0.000;0.000;2023-03-11T02:18:39;18.80;40.50
47414;DHT22;33163;0.000;0.000;2023-03-11T02:21:16;18.80;40.60
47414;DHT22;33163;0.000;0.000;2023-03-11T02:23:50;18.80;40.60
47414;DHT22;33163;0.000;0.000;2023-03-11T02:26:21;18.70;40.60
47414;DHT22;33163;0.000;0.000;2023-03-11T02:28:50;18.70;40.60
47414;DHT22;33163;0.000;0.000;2023-03-11T02:31:18;18.70;40.70
47414;DHT22;33163;0.000;0.000;2023-03-11T02:33:48;18.70;40.70
47414;DHT22;33163;0.000;0.000;2023-03-11T02:36:34;18.70;40.60
47414;DHT22;33163;0.000;0.000;2023-03-11T02:39:01;18.70;40.50
47414;DHT22;33163;0.000;0.000;2023-03-11T02:41:29;18.70;40.60
47414;DHT22;33163;0.000;0.000;2023-03-11T02:43:59;18.70;40.50
47414;DHT22;33163;0.000;0.000;2023-03-11T02:46:26;18.70;40.50
47414;DHT22;33163;0.000;0.000;2023-03-11T02:48:53;18.70;40.50
47414;DHT22;33163;0.000;0.000;2023-03-11T02:51:21;18.70;40.50
47414;DHT22;33163;0.000;0.000;2023-03-11T02:53:50;18.70;40.60
47414;DHT22;33163;0.000;0.000;2023-03-11T02:56:18;18.60;40.50
47414;DHT22;33163;0.000;0.000;2023-03-11T02:58:45;18.60;40.60
47414;DHT22;33163;0.000;0.000;2023-03-11T03:01:14;18.60;40.60
47414;DHT22;33163;0.000;0.000;2023-03-11T03:06:14;18.70;40.50
47414;DHT22;33163;0.000;0.000;2023-03-11T03:08:41;18.70;40.50
47414;DHT22;33163;0.000;0.000;2023-03-11T03:11:08;18.60;40.50
47414;DHT22;33163;0.000;0.000;2023-03-11T03:16:10;18.60;40.50
47414;DHT22;33163;0.000;0.000;2023-03-11T03:18:44;18.60;40.50
47414;DHT22;33163;0.000;0.000;2023-03-11T03:21:11;18.60;40.50
47414;DHT22;33163;0.000;0.000;2023-03-11T03:23:43;18.60;40.60
47414;DHT22;33163;0.000;0.000;2023-03-11T03:26:11;18.60;40.60
47414;DHT22;33163;0.000;0.000;2023-03-11T03:28:38;18.60;40.60
47414;DHT22;33163;0.000;0.000;2023-03-11T03:31:09;18.60;40.50
47414;DHT22;33163;0.000;0.000;2023-03-11T03:33:42;18.60;40.50
47414;DHT22;33163;0.000;0.000;2023-03-11T03:38:44;18.60;40.50
47414;DHT22;33163;0.000;0.000;2023-03-11T03:41:13;18.60;40.50
47414;DHT22;33163;0.000;0.000;2023-03-11T03:43:40;18.60;40.50
47414;DHT22;33163;0.000;0.000;2023-03-11T03:46:14;18.50;40.50
47414;DHT22;33163;0.000;0.000;2023-03-11T03:48:41;18.50;40.60
47414;DHT22;33163;0.000;0.000;2023-03-11T03:51:10;18.50;40.50
47414;DHT22;33163;0.000;0.000;2023-03-11T03:53:37;18.50;40.50
47414;DHT22;33163;0.000;0.000;2023-03-11T03:56:09;18.50;40.60
47414;DHT22;33163;0.000;0.000;2023-03-11T03:58:45;18.50;40.60
47414;DHT22;33163;0.000;0.000;2023-03-11T04:01:12;18.50;40.60
47414;DHT22;33163;0.000;0.000;2023-03-11T04:03:53;18.50;40.60
47414;DHT22;33163;0.000;0.000;2023-03-11T04:06:21;18.50;40.50
47414;DHT22;33163;0.000;0.000;2023-03-11T04:09:06;18.50;40.60
47414;DHT22;33163;0.000;0.000;2023-03-11T04:14:42;18.50;40.50
47414;DHT22;33163;0.000;0.000;2023-03-11T04:17:12;18.40;40.50
47414;DHT22;33163;0.000;0.000;2023-03-11T04:19:58;18.40;40.60
47414;DHT22;33163;0.000;0.000;2023-03-11T04:22:25;18.50;40.70
47414;DHT22;33163;0.000;0.000;2023-03-11T04:25:05;18.50;40.60
47414;DHT22;33163;0.000;0.000;2023-03-11T04:27:46;18.50;40.50
47414;DHT22;33163;0.000;0.000;2023-03-11T04:30:18;18.50;40.60
47414;DHT22;33163;0.000;0.000;2023-03-11T04:32:50;18.50;40.60
47414;DHT22;33163;0.000;0.000;2023-03-11T04:35:29;18.40;40.50
47414;DHT22;33163;0.000;0.000;2023-03-11T04:37:56;18.40;40.60
47414;DHT22;33163;0.000;0.000;2023-03-11T04:40:23;18.40;40.60
47414;DHT22;33163;0.000;0.000;2023-03-11T04:42:49;18.40;40.60
47414;DHT22;33163;0.000;0.000;2023-03-11T04:45:18;18.40;40.60
47414;DHT22;33163;0.000;0.000;2023-03-11T04:47:46;18.40;40.60
47414;DHT22;33163;0.000;0.000;2023-03-11T04:50:14;18.40;40.60
47414;DHT22;33163;0.000;0.000;2023-03-11T04:52:41;18.40;40.50
47414;DHT22;33163;0.000;0.000;2023-03-11T04:55:09;18.40;40.50
47414;DHT22;33163;0.000;0.000;2023-03-11T04:57:36;18.40;40.50
47414;DHT22;33163;0.000;0.000;2023-03-11T05:00:03;18.40;40.50
47414;DHT22;33163;0.000;0.000;2023-03-11T05:02:34;18.40;40.60
47414;DHT22;33163;0.000;0.000;2023-03-11T05:05:01;18.30;40.50
47414;DHT22;33163;0.000;0.000;2023-03-11T05:07:28;18.40;40.60
47414;DHT22;33163;0.000;0.000;2023-03-11T05:09:55;18.40;40.60
47414;DHT22;33163;0.000;0.000;2023-03-11T05:12:21;18.40;40.60
47414;DHT22;33163;0.000;0.000;2023-03-11T05:14:48;18.40;40.60
47414;DHT22;33163;0.000;0.000;2023-03-11T05:17:15;18.40;40.60
47414;DHT22;33163;0.000;0.000;2023-03-11T05:19:45;18.40;40.60
47414;DHT22;33163;0.000;0.000;2023-03-11T05:22:13;18.40;40.50
47414;DHT22;33163;0.000;0.000;2023-03-11T05:24:40;18.40;40.50
47414;DHT22;33163;0.000;0.000;2023-03-11T05:27:07;18.40;40.50
47414;DHT22;33163;0.000;0.000;2023-03-11T05:29:33;18.30;40.40
47414;DHT22;33163;0.000;0.000;2023-03-11T05:32:03;18.30;40.40
47414;DHT22;33163;0.000;0.000;2023-03-11T05:34:30;18.30;40.50
47414;DHT22;33163;0.000;0.000;2023-03-11T05:36:58;18.30;40.60
47414;DHT22;33163;0.000;0.000;2023-03-11T05:39:26;18.30;40.50
47414;DHT22;33163;0.000;0.000;2023-03-11T05:41:52;18.30;40.50
47414;DHT22;33163;0.000;0.000;2023-03-11T05:44:21;18.30;40.40
47414;DHT22;33163;0.000;0.000;2023-03-11T05:46:48;18.30;40.40
47414;DHT22;33163;0.000;0.000;2023-03-11T05:49:14;18.30;40.40
47414;DHT22;33163;0.000;0.000;2023-03-11T05:51:41;18.30;40.40
47414;DHT22;33163;0.000;0.000;2023-03-11T05:54:09;18.30;40.40
47414;DHT22;33163;0.000;0.000;2023-03-11T05:56:39;18.30;40.50
47414;DHT22;33163;0.000;0.000;2023-03-11T05:59:07;18.20;40.50
47414;DHT22;33163;0.000;0.000;2023-03-11T06:01:34;18.20;41.20
47414;DHT22;33163;0.000;0.000;2023-03-11T06:04:01;18.20;40.40
47414;DHT22;33163;0.000;0.000;2023-03-11T06:06:28;18.20;40.40
47414;DHT22;33163;0.000;0.000;2023-03-11T06:08:55;18.30;40.40
47414;DHT22;33163;0.000;0.000;2023-03-11T06:11:23;18.30;40.40
47414;DHT22;33163;0.000;0.000;2023-03-11T06:13:51;18.20;40.40
47414;DHT22;33163;0.000;0.000;2023-03-11T06:16:19;18.20;40.40
47414;DHT22;33163;0.000;0.000;2023-03-11T06:18:45;18.20;40.40
47414;DHT22;33163;0.000;0.000;2023-03-11T06:21:15;18.20;40.40
47414;DHT22;33163;0.000;0.000;2023-03-11T06:23:42;18.20;40.40
47414;DHT22;33163;0.000;0.000;2023-03-11T06:26:10;18.20;40.40
47414;DHT22;33163;0.000;0.000;2023-03-11T06:28:39;18.20;40.40
47414;DHT22;33163;0.000;0.000;2023-03-11T06:31:08;18.20;40.30
47414;DHT22;33163;0.000;0.000;2023-03-11T06:33:35;18.20;40.30
47414;DHT22;33163;0.000;0.000;2023-03-11T06:36:03;18.20;40.30
47414;DHT22;33163;0.000;0.000;2023-03-11T06:38:31;18.20;40.30
47414;DHT22;33163;0.000;0.000;2023-03-11T06:40:58;18.20;40.40
47414;DHT22;33163;0.000;0.000;2023-03-11T06:43:25;18.20;40.40
47414;DHT22;33163;0.000;0.000;2023-03-11T06:45:54;18.20;40.40
47414;DHT22;33163;0.000;0.000;2023-03-11T06:48:20;18.20;40.30
47414;DHT22;33163;0.000;0.000;2023-03-11T06:50:53;18.20;40.30
47414;DHT22;33163;0.000;0.000;2023-03-11T06:53:19;18.20;40.30
47414;DHT22;33163;0.000;0.000;2023-03-11T06:55:57;18.20;40.30
47414;DHT22;33163;0.000;0.000;2023-03-11T06:58:23;18.20;40.30
47414;DHT22;33163;0.000;0.000;2023-03-11T07:00:50;18.20;40.40
47414;DHT22;33163;0.000;0.000;2023-03-11T07:03:18;18.20;40.40
47414;DHT22;33163;0.000;0.000;2023-03-11T07:05:45;18.20;40.40
47414;DHT22;33163;0.000;0.000;2023-03-11T07:08:15;18.20;40.40
47414;DHT22;33163;0.000;0.000;2023-03-11T07:10:42;18.20;40.40
47414;DHT22;33163;0.000;0.000;2023-03-11T07:13:08;18.30;40.40
47414;DHT22;33163;0.000;0.000;2023-03-11T07:15:35;18.30;40.40
47414;DHT22;33163;0.000;0.000;2023-03-11T07:18:02;18.40;40.40
47414;DHT22;33163;0.000;0.000;2023-03-11T07:20:30;18.40;40.40
47414;DHT22;33163;0.000;0.000;2023-03-11T07:22:57;18.40;40.30
47414;DHT22;33163;0.000;0.000;2023-03-11T07:25:24;18.50;40.20
47414;DHT22;33163;0.000;0.000;2023-03-11T07:27:50;18.60;40.20
47414;DHT22;33163;0.000;0.000;2023-03-11T07:30:17;18.60;40.10
47414;DHT22;33163;0.000;0.000;2023-03-11T07:32:44;18.70;40.20
47414;DHT22;33163;0.000;0.000;2023-03-11T07:35:11;18.70;40.10
47414;DHT22;33163;0.000;0.000;2023-03-11T07:37:39;18.70;40.10
47414;DHT22;33163;0.000;0.000;2023-03-11T07:40:08;18.80;40.10
47414;DHT22;33163;0.000;0.000;2023-03-11T07:42:35;18.90;40.10
47414;DHT22;33163;0.000;0.000;2023-03-11T07:45:02;18.90;40.00
47414;DHT22;33163;0.000;0.000;2023-03-11T07:47:29;18.90;39.90
47414;DHT22;33163;0.000;0.000;2023-03-11T07:49:55;19.00;40.00
47414;DHT22;33163;0.000;0.000;2023-03-11T07:52:22;19.00;40.00
47414;DHT22;33163;0.000;0.000;2023-03-11T07:54:50;19.00;40.00
47414;DHT22;33163;0.000;0.000;2023-03-11T07:57:17;18.90;40.10
47414;DHT22;33163;0.000;0.000;2023-03-11T07:59:44;18.90;40.30
47414;DHT22;33163;0.000;0.000;2023-03-11T08:02:10;18.90;40.50
47414;DHT22;33163;0.000;0.000;2023-03-11T08:04:37;18.80;40.40
47414;DHT22;33163;0.000;0.000;2023-03-11T08:07:04;18.80;40.60
47414;DHT22;33163;0.000;0.000;2023-03-11T08:09:31;18.80;40.60
47414;DHT22;33163;0.000;0.000;2023-03-11T08:11:59;18.80;40.70
47414;DHT22;33163;0.000;0.000;2023-03-11T08:14:28;18.80;40.80
47414;DHT22;33163;0.000;0.000;2023-03-11T08:16:54;18.80;40.90
47414;DHT22;33163;0.000;0.000;2023-03-11T08:19:21;18.80;40.80
47414;DHT22;33163;0.000;0.000;2023-03-11T08:21:48;18.80;40.90
47414;DHT22;33163;0.000;0.000;2023-03-11T08:24:14;18.80;40.90
47414;DHT22;33163;0.000;0.000;2023-03-11T08:26:41;18.80;40.90
47414;DHT22;33163;0.000;0.000;2023-03-11T08:29:09;18.80;41.00
47414;DHT22;33163;0.000;0.000;2023-03-11T08:31:36;18.80;41.10
47414;DHT22;33163;0.000;0.000;2023-03-11T08:34:05;18.70;41.20
47414;DHT22;33163;0.000;0.000;2023-03-11T08:36:32;18.70;41.40
47414;DHT22;33163;0.000;0.000;2023-03-11T08:38:59;18.80;41.50
47414;DHT22;33163;0.000;0.000;2023-03-11T08:41:27;18.90;41.40
47414;DHT22;33163;0.000;0.000;2023-03-11T08:43:53;18.90;41.30
47414;DHT22;33163;0.000;0.000;2023-03-11T08:46:24;18.90;41.30
47414;DHT22;33163;0.000;0.000;2023-03-11T08:48:51;18.90;41.40
47414;DHT22;33163;0.000;0.000;2023-03-11T08:51:18;19.00;41.30
47414;DHT22;33163;0.000;0.000;2023-03-11T08:53:45;19.00;41.70
47414;DHT22;33163;0.000;0.000;2023-03-11T08:56:12;18.90;41.70
47414;DHT22;33163;0.000;0.000;2023-03-11T08:58:39;19.00;41.80
47414;DHT22;33163;0.000;0.000;2023-03-11T09:01:06;19.00;41.80
47414;DHT22;33163;0.000;0.000;2023-03-11T09:03:35;19.10;42.10
47414;DHT22;33163;0.000;0.000;2023-03-11T09:06:05;19.10;42.20
47414;DHT22;33163;0.000;0.000;2023-03-11T09:08:33;19.10;42.50
47414;DHT22;33163;0.000;0.000;2023-03-11T09:11:00;19.10;42.70
47414;DHT22;33163;0.000;0.000;2023-03-11T09:13:26;19.00;42.80
47414;DHT22;33163;0.000;0.000;2023-03-11T09:15:53;19.00;43.00
47414;DHT22;33163;0.000;0.000;2023-03-11T09:18:20;19.00;43.30
47414;DHT22;33163;0.000;0.000;2023-03-11T09:20:48;18.90;43.40
47414;DHT22;33163;0.000;0.000;2023-03-11T09:23:16;18.90;43.90
47414;DHT22;33163;0.000;0.000;2023-03-11T09:25:43;18.90;44.00
47414;DHT22;33163;0.000;0.000;2023-03-11T09:28:10;18.90;43.80
47414;DHT22;33163;0.000;0.000;2023-03-11T09:30:37;18.90;43.70
47414;DHT22;33163;0.000;0.000;2023-03-11T09:33:04;18.90;43.40
47414;DHT22;33163;0.000;0.000;2023-03-11T09:35:31;18.90;43.50
47414;DHT22;33163;0.000;0.000;2023-03-11T09:37:59;18.90;43.50
47414;DHT22;33163;0.000;0.000;2023-03-11T09:40:31;18.90;43.50
47414;DHT22;33163;0.000;0.000;2023-03-11T09:43:12;18.90;43.50
47414;DHT22;33163;0.000;0.000;2023-03-11T09:45:45;18.90;43.50
47414;DHT22;33163;0.000;0.000;2023-03-11T09:48:20;18.80;43.00
47414;DHT22;33163;0.000;0.000;2023-03-11T09:50:52;18.80;43.20
47414;DHT22;33163;0.000;0.000;2023-03-11T09:53:28;18.90;43.20
47414;DHT22;33163;0.000;0.000;2023-03-11T09:56:01;18.90;42.90
47414;DHT22;33163;0.000;0.000;2023-03-11T09:58:36;18.80;42.90
47414;DHT22;33163;0.000;0.000;2023-03-11T10:01:13;18.80;42.90
47414;DHT22;33163;0.000;0.000;2023-03-11T10:03:41;18.70;42.40
47414;DHT22;33163;0.000;0.000;2023-03-11T10:06:14;18.80;42.60
47414;DHT22;33163;0.000;0.000;2023-03-11T10:08:46;18.80;42.50
47414;DHT22;33163;0.000;0.000;2023-03-11T10:11:22;18.70;43.00
47414;DHT22;33163;0.000;0.000;2023-03-11T10:13:59;18.80;42.90
47414;DHT22;33163;0.000;0.000;2023-03-11T10:16:32;18.80;43.20
47414;DHT22;33163;0.000;0.000;2023-03-11T10:19:07;18.80;43.10
47414;DHT22;33163;0.000;0.000;2023-03-11T10:21:43;18.80;43.10
47414;DHT22;33163;0.000;0.000;2023-03-11T10:24:23;18.80;43.20
47414;DHT22;33163;0.000;0.000;2023-03-11T10:27:00;18.80;43.20
47414;DHT22;33163;0.000;0.000;2023-03-11T10:29:29;18.80;43.20
47414;DHT22;33163;0.000;0.000;2023-03-11T10:32:03;18.80;43.20
47414;DHT22;33163;0.000;0.000;2023-03-11T10:34:34;18.80;43.40
47414;DHT22;33163;0.000;0.000;2023-03-11T10:37:05;18.80;43.50
47414;DHT22;33163;0.000;0.000;2023-03-11T10:39:38;18.80;43.50
47414;DHT22;33163;0.000;0.000;2023-03-11T10:42:10;18.80;43.70
47414;DHT22;33163;0.000;0.000;2023-03-11T10:44:39;18.80;43.70
47414;DHT22;33163;0.000;0.000;2023-03-11T10:47:12;18.80;43.80
47414;DHT22;33163;0.000;0.000;2023-03-11T10:49:41;18.80;43.80
47414;DHT22;33163;0.000;0.000;2023-03-11T10:52:07;18.90;43.80
47414;DHT22;33163;0.000;0.000;2023-03-11T10:54:37;18.90;43.90
47414;DHT22;33163;0.000;0.000;2023-03-11T10:57:18;18.90;44.00
47414;DHT22;33163;0.000;0.000;2023-03-11T10:59:49;18.90;43.90
47414;DHT22;33163;0.000;0.000;2023-03-11T11:02:23;18.90;44.00
47414;DHT22;33163;0.000;0.000;2023-03-11T11:05:03;18.90;44.10
47414;DHT22;33163;0.000;0.000;2023-03-11T11:07:32;19.00;44.40
47414;DHT22;33163;0.000;0.000;2023-03-11T11:10:16;19.00;44.50
47414;DHT22;33163;0.000;0.000;2023-03-11T11:12:52;19.00;44.70
47414;DHT22;33163;0.000;0.000;2023-03-11T11:15:21;19.00;44.80
47414;DHT22;33163;0.000;0.000;2023-03-11T11:17:48;19.10;44.90
47414;DHT22;33163;0.000;0.000;2023-03-11T11:20:17;19.10;45.20
47414;DHT22;33163;0.000;0.000;2023-03-11T11:22:48;19.20;45.10
47414;DHT22;33163;0.000;0.000;2023-03-11T11:25:32;19.30;45.30
47414;DHT22;33163;0.000;0.000;2023-03-11T11:28:01;19.30;45.40
47414;DHT22;33163;0.000;0.000;2023-03-11T11:30:30;19.40;45.50
47414;DHT22;33163;0.000;0.000;2023-03-11T11:33:21;19.40;45.50
47414;DHT22;33163;0.000;0.000;2023-03-11T11:35:50;19.50;45.60
47414;DHT22;33163;0.000;0.000;2023-03-11T11:38:21;19.50;45.50
47414;DHT22;33163;0.000;0.000;2023-03-11T11:40:50;19.60;45.30
47414;DHT22;33163;0.000;0.000;2023-03-11T11:43:20;19.70;45.00
47414;DHT22;33163;0.000;0.000;2023-03-11T11:45:55;19.90;44.90
47414;DHT22;33163;0.000;0.000;2023-03-11T11:48:28;19.90;44.80
47414;DHT22;33163;0.000;0.000;2023-03-11T11:50:58;20.00;44.70
47414;DHT22;33163;0.000;0.000;2023-03-11T11:53:29;20.00;44.50
47414;DHT22;33163;0.000;0.000;2023-03-11T11:56:00;19.90;44.60
47414;DHT22;33163;0.000;0.000;2023-03-11T11:58:27;19.90;44.90
47414;DHT22;33163;0.000;0.000;2023-03-11T12:01:04;19.80;45.00
47414;DHT22;33163;0.000;0.000;2023-03-11T12:03:43;19.80;44.90
47414;DHT22;33163;0.000;0.000;2023-03-11T12:06:19;19.80;44.90
47414;DHT22;33163;0.000;0.000;2023-03-11T12:08:56;19.80;44.90
47414;DHT22;33163;0.000;0.000;2023-03-11T12:11:36;19.80;44.90
47414;DHT22;33163;0.000;0.000;2023-03-11T12:14:11;19.80;44.90
47414;DHT22;33163;0.000;0.000;2023-03-11T12:16:41;19.80;44.80
47414;DHT22;33163;0.000;0.000;2023-03-11T12:19:16;19.90;44.80
47414;DHT22;33163;0.000;0.000;2023-03-11T12:22:01;19.90;44.70
47414;DHT22;33163;0.000;0.000;2023-03-11T12:24:49;19.80;44.50
47414;DHT22;33163;0.000;0.000;2023-03-11T12:27:25;19.90;44.50
47414;DHT22;33163;0.000;0.000;2023-03-11T12:29:55;20.00;44.50
47414;DHT22;33163;0.000;0.000;2023-03-11T12:32:31;20.10;44.60
47414;DHT22;33163;0.000;0.000;2023-03-11T12:35:13;20.10;44.70
47414;DHT22;33163;0.000;0.000;2023-03-11T12:37:45;20.20;44.70
47414;DHT22;33163;0.000;0.000;2023-03-11T12:40:45;20.20;45.00
47414;DHT22;33163;0.000;0.000;2023-03-11T12:49:47;20.40;45.30
47414;DHT22;33163;0.000;0.000;2023-03-11T12:52:28;20.40;45.10
47414;DHT22;33163;0.000;0.000;2023-03-11T12:55:27;20.40;45.10
47414;DHT22;33163;0.000;0.000;2023-03-11T12:58:23;20.50;45.40
47414;DHT22;33163;0.000;0.000;2023-03-11T13:01:05;20.50;45.40
47414;DHT22;33163;0.000;0.000;2023-03-11T13:03:58;20.50;45.00
47414;DHT22;33163;0.000;0.000;2023-03-11T13:06:57;20.50;44.60
47414;DHT22;33163;0.000;0.000;2023-03-11T13:09:30;20.40;44.60
47414;DHT22;33163;0.000;0.000;2023-03-11T13:11:57;20.40;44.70
47414;DHT22;33163;0.000;0.000;2023-03-11T13:14:29;20.40;44.80
47414;DHT22;33163;0.000;0.000;2023-03-11T13:19:50;20.40;44.80
47414;DHT22;33163;0.000;0.000;2023-03-11T13:25:40;20.30;45.00
47414;DHT22;33163;0.000;0.000;2023-03-11T13:28:23;20.20;45.10
47414;DHT22;33163;0.000;0.000;2023-03-11T13:30:56;20.20;45.20
47414;DHT22;33163;0.000;0.000;2023-03-11T13:33:44;20.20;45.30
47414;DHT22;33163;0.000;0.000;2023-03-11T13:36:28;20.20;45.20
47414;DHT22;33163;0.000;0.000;2023-03-11T13:39:12;20.20;44.50
47414;DHT22;33163;0.000;0.000;2023-03-11T13:41:45;20.30;44.80
47414;DHT22;33163;0.000;0.000;2023-03-11T13:44:19;20.30;44.50
47414;DHT22;33163;0.000;0.000;2023-03-11T13:46:49;20.30;45.00
47414;DHT22;33163;0.000;0.000;2023-03-11T13:49:29;20.20;44.20
47414;DHT22;33163;0.000;0.000;2023-03-11T13:51:59;20.30;44.40
47414;DHT22;33163;0.000;0.000;2023-03-11T13:54:36;20.30;44.20
47414;DHT22;33163;0.000;0.000;2023-03-11T13:57:05;20.20;44.10
47414;DHT22;33163;0.000;0.000;2023-03-11T13:59:41;20.20;44.00
47414;DHT22;33163;0.000;0.000;2023-03-11T14:02:15;20.10;44.00
47414;DHT22;33163;0.000;0.000;2023-03-11T14:04:48;20.20;44.10
47414;DHT22;33163;0.000;0.000;2023-03-11T14:07:22;20.10;44.10
47414;DHT22;33163;0.000;0.000;2023-03-11T14:09:50;20.10;43.90
47414;DHT22;33163;0.000;0.000;2023-03-11T14:12:18;20.00;44.10
47414;DHT22;33163;0.000;0.000;2023-03-11T14:14:48;20.10;43.90
47414;DHT22;33163;0.000;0.000;2023-03-11T14:17:18;20.00;43.70
47414;DHT22;33163;0.000;0.000;2023-03-11T14:20:03;20.00;43.60
47414;DHT22;33163;0.000;0.000;2023-03-11T14:22:31;20.00;43.50
47414;DHT22;33163;0.000;0.000;2023-03-11T14:25:01;20.00;43.50
47414;DHT22;33163;0.000;0.000;2023-03-11T14:27:31;20.00;43.40
47414;DHT22;33163;0.000;0.000;2023-03-11T14:29:58;20.00;43.30
47414;DHT22;33163;0.000;0.000;2023-03-11T14:32:26;20.00;43.20
47414;DHT22;33163;0.000;0.000;2023-03-11T14:34:54;20.10;43.20
47414;DHT22;33163;0.000;0.000;2023-03-11T14:37:30;20.10;43.10
47414;DHT22;33163;0.000;0.000;2023-03-11T14:39:57;20.00;42.90
47414;DHT22;33163;0.000;0.000;2023-03-11T14:42:26;20.10;43.00
47414;DHT22;33163;0.000;0.000;2023-03-11T14:45:00;20.10;43.00
47414;DHT22;33163;0.000;0.000;2023-03-11T14:47:31;20.00;42.90
47414;DHT22;33163;0.000;0.000;2023-03-11T14:50:00;20.10;42.90
47414;DHT22;33163;0.000;0.000;2023-03-11T14:52:32;20.00;42.90
47414;DHT22;33163;0.000;0.000;2023-03-11T14:55:05;20.00;42.90
47414;DHT22;33163;0.000;0.000;2023-03-11T14:57:36;20.00;42.60
47414;DHT22;33163;0.000;0.000;2023-03-11T15:00:13;19.90;42.50
47414;DHT22;33163;0.000;0.000;2023-03-11T15:02:54;19.90;42.60
47414;DHT22;33163;0.000;0.000;2023-03-11T15:05:24;19.80;42.30
47414;DHT22;33163;0.000;0.000;2023-03-11T15:07:57;19.70;42.30
47414;DHT22;33163;0.000;0.000;2023-03-11T15:10:25;19.80;42.40
47414;DHT22;33163;0.000;0.000;2023-03-11T15:13:04;19.70;42.90
47414;DHT22;33163;0.000;0.000;2023-03-11T15:15:33;19.70;42.50
47414;DHT22;33163;0.000;0.000;2023-03-11T15:18:00;19.70;42.50
47414;DHT22;33163;0.000;0.000;2023-03-11T15:20:30;19.70;42.60
47414;DHT22;33163;0.000;0.000;2023-03-11T15:22:58;19.70;42.70
47414;DHT22;33163;0.000;0.000;2023-03-11T15:25:27;19.70;42.60
47414;DHT22;33163;0.000;0.000;2023-03-11T15:27:54;19.70;42.60
47414;DHT22;33163;0.000;0.000;2023-03-11T15:30:24;19.70;43.60
47414;DHT22;33163;0.000;0.000;2023-03-11T15:32:53;19.60;43.80
47414;DHT22;33163;0.000;0.000;2023-03-11T15:35:22;19.60;43.40
47414;DHT22;33163;0.000;0.000;2023-03-11T15:37:50;19.60;43.20
47414;DHT22;33163;0.000;0.000;2023-03-11T15:40:20;19.60;43.20
47414;DHT22;33163;0.000;0.000;2023-03-11T15:43:08;19.60;43.20
47414;DHT22;33163;0.000;0.000;2023-03-11T15:45:35;19.60;43.00
47414;DHT22;33163;0.000;0.000;2023-03-11T15:48:03;19.50;42.90
47414;DHT22;33163;0.000;0.000;2023-03-11T15:50:30;19.50;42.90
47414;DHT22;33163;0.000;0.000;2023-03-11T15:52:57;19.50;42.90
47414;DHT22;33163;0.000;0.000;2023-03-11T15:55:26;19.50;43.00
47414;DHT22;33163;0.000;0.000;2023-03-11T15:57:59;19.40;43.00
47414;DHT22;33163;0.000;0.000;2023-03-11T16:00:27;19.50;43.00
47414;DHT22;33163;0.000;0.000;2023-03-11T16:02:54;19.50;43.00
47414;DHT22;33163;0.000;0.000;2023-03-11T16:05:24;19.50;43.60
47414;DHT22;33163;0.000;0.000;2023-03-11T16:07:51;19.50;44.20
47414;DHT22;33163;0.000;0.000;2023-03-11T16:10:20;19.40;43.90
47414;DHT22;33163;0.000;0.000;2023-03-11T16:12:48;19.40;43.80
47414;DHT22;33163;0.000;0.000;2023-03-11T16:15:19;19.40;43.70
47414;DHT22;33163;0.000;0.000;2023-03-11T16:17:49;19.40;43.80
47414;DHT22;33163;0.000;0.000;2023-03-11T16:20:17;19.40;43.90
47414;DHT22;33163;0.000;0.000;2023-03-11T16:22:47;19.40;43.90
47414;DHT22;33163;0.000;0.000;2023-03-11T16:25:20;19.40;43.90
47414;DHT22;33163;0.000;0.000;2023-03-11T16:27:49;19.30;43.80